Reston, VA (20196)

1:06 AM EDT on July 02, 2015 (GMT -0400)
Chantilly Highlands | | Change Station
CLOSE
Current Station
Personal Weather Station
Location: Herndon, VA
Elevation: 340 ft
Nearby Weather Stations

Elev 340 ft 38.92 °N, 77.40 °W | Updated 33 seconds ago

Scattered Clouds
Scattered Clouds
69.3 °F
Feels Like 69.3 °F
N
0.0
Wind Variable Wind from SE
Gusts 0.0 mph

Today
High -- | Low -- °F
--% Chance of Precip.
Yesterday
High -- | Low -- °F
Precip. -- in
5:48 AM 8:38 PM
Full, 100% visible
Pressure 29.91 in
Visibility 8.0 miles
Clouds Scattered Clouds 4800 ft
Scattered Clouds 7000 ft
Dew Point 67 °F
Humidity 93%
Rainfall 0.00 in
Snow Depth Not available.
UV 0 out of 12
Pollen 4.90 out of 12
Air Quality Not available.
Flu Activity Not available.
METAR KIAD 020452Z 00000KT 8SM SCT048 SCT070 21/17 A2992 RMK AO2 SLP128 T02110172 402940183

More Conditions Fewer Conditions

Pressure 29.91 in
Visibility 8.0 miles
Clouds Scattered Clouds 4800 ft
Scattered Clouds 7000 ft
Dew Point 67 °F
Humidity 93%
Rainfall 0.00 in
Snow Depth Not available.
UV 0 out of 12
Pollen 4.90 out of 12
Air Quality Not available.
Flu Activity Not available.
METAR KIAD 020452Z 00000KT 8SM SCT048 SCT070 21/17 A2992 RMK AO2 SLP128 T02110172 402940183

More Conditions Fewer Conditions

10-Day Weather Forecast

×

Almanac

Astronomy

Jul. 02, 2015 Rise Set
Actual Time
Civil Twilight
Nautical Twilight
Astronomical Twilight
Moon
Length of Visible Light
Length of Day
Tomorrow will be .
, % of the Moon is Illuminated

Today's Extremes

State Highs State Lows

Community

WunderPhotos

Upload Photos

1,834,420 photos uploaded!

WunderBlogs® & News

Nearby

Air Quality

  Air Quality AQ Index Pollutant
Not available.

Snow Depth

Station Depth Elevation

Earthquake Activity

City Distance Mag. Time & Date
Minimum magnitude displayed is 2.5.

Coastal Water Temperatures

Place Temperature

Stations

Nearby Weather Stations

Station Location Temp. Windchill Dew Point Humidity Wind Precip. Elev Updated Type